createdAt,value
2022-10-20T00:01:29.285Z,100.00
2022-10-20T00:03:58.886Z,100.00
2022-10-20T00:06:30.285Z,100.00
2022-10-20T00:09:01.621Z,100.00
2022-10-20T00:11:31.666Z,100.00
2022-10-20T00:14:02.369Z,100.00
2022-10-20T00:16:35.584Z,100.00
2022-10-20T00:19:05.924Z,100.00
2022-10-20T00:21:34.786Z,100.00
2022-10-20T00:24:04.637Z,100.00
2022-10-20T00:26:34.248Z,100.00
2022-10-20T00:29:05.475Z,100.00
2022-10-20T00:31:34.442Z,100.00
2022-10-20T00:34:03.439Z,100.00
2022-10-20T00:36:32.862Z,100.00
2022-10-20T00:39:03.415Z,100.00
2022-10-20T00:41:34.418Z,100.00
2022-10-20T00:44:24.831Z,100.00
2022-10-20T00:46:54.643Z,100.00
2022-10-20T00:49:26.394Z,100.00
2022-10-20T00:51:56.080Z,100.00
2022-10-20T00:54:28.443Z,100.00
2022-10-20T00:56:58.629Z,100.00
2022-10-20T00:59:34.769Z,100.00
2022-10-20T01:02:06.562Z,100.00
2022-10-20T01:04:38.322Z,100.00
2022-10-20T01:07:07.491Z,100.00
2022-10-20T01:09:37.006Z,100.00
2022-10-20T01:12:18.957Z,100.00
2022-10-20T01:15:01.203Z,100.00
2022-10-20T01:17:46.993Z,100.00
2022-10-20T01:20:21.905Z,100.00
2022-10-20T01:23:29.451Z,100.00
2022-10-20T01:26:25.693Z,100.00
2022-10-20T01:29:01.324Z,100.00
2022-10-20T01:31:45.664Z,100.00
2022-10-20T01:34:20.922Z,100.00
2022-10-20T01:37:34.054Z,100.00
2022-10-20T01:40:30.062Z,100.00
2022-10-20T01:43:03.186Z,100.00
2022-10-20T01:45:36.187Z,100.00
2022-10-20T01:48:08.749Z,100.00
2022-10-20T01:50:39.790Z,100.00
2022-10-20T01:53:09.307Z,100.00
2022-10-20T01:55:39.190Z,100.00
2022-10-20T01:58:44.453Z,100.00
2022-10-20T02:01:26.686Z,100.00
2022-10-20T02:03:59.317Z,100.00
2022-10-20T02:06:52.173Z,100.00
2022-10-20T02:09:46.775Z,100.00
2022-10-20T02:12:26.899Z,100.00
2022-10-20T02:14:57.557Z,100.00
2022-10-20T02:17:26.757Z,100.00
2022-10-20T02:19:56.716Z,100.00
2022-10-20T02:22:26.938Z,100.00
2022-10-20T02:24:56.142Z,100.00
2022-10-20T02:27:37.340Z,100.00
2022-10-20T02:30:11.214Z,100.00
2022-10-20T02:32:42.831Z,100.00
2022-10-20T02:35:15.358Z,100.00
2022-10-20T02:37:44.394Z,100.00
2022-10-20T02:40:14.430Z,100.00
2022-10-20T02:42:44.436Z,100.00
2022-10-20T02:45:13.924Z,100.00
2022-10-20T02:47:43.041Z,100.00
2022-10-20T02:50:12.339Z,100.00
2022-10-20T02:52:41.815Z,100.00
2022-10-20T02:55:12.646Z,100.00
2022-10-20T02:57:41.981Z,100.00
2022-10-20T03:00:11.731Z,100.00
2022-10-20T03:02:40.736Z,100.00
2022-10-20T03:05:28.483Z,100.00
2022-10-20T03:07:57.709Z,100.00
2022-10-20T03:10:26.480Z,100.00
2022-10-20T03:12:55.840Z,100.00
2022-10-20T03:15:24.529Z,100.00
2022-10-20T03:17:53.521Z,100.00
2022-10-20T03:20:22.586Z,100.00
2022-10-20T03:22:51.471Z,100.00
2022-10-20T03:25:20.243Z,100.00
2022-10-20T03:27:53.786Z,100.00
2022-10-20T03:30:22.709Z,100.00
2022-10-20T03:32:51.412Z,100.00
2022-10-20T03:35:20.892Z,100.00
2022-10-20T03:37:49.733Z,100.00
2022-10-20T03:40:18.892Z,100.00
2022-10-20T03:42:47.853Z,100.00
2022-10-20T03:45:18.706Z,100.00
2022-10-20T03:47:47.631Z,100.00
2022-10-20T03:50:16.516Z,100.00
2022-10-20T03:52:45.653Z,100.00
2022-10-20T03:55:14.607Z,100.00
2022-10-20T03:57:43.694Z,100.00
2022-10-20T04:00:13.303Z,100.00
2022-10-20T04:02:48.326Z,100.00
2022-10-20T04:05:21.862Z,100.00
2022-10-20T04:07:51.057Z,100.00
2022-10-20T04:10:20.523Z,100.00
2022-10-20T04:12:49.366Z,100.00
2022-10-20T04:15:19.733Z,100.00
2022-10-20T04:17:48.977Z,100.00
2022-10-20T04:20:17.964Z,100.00
2022-10-20T04:22:47.275Z,100.00
2022-10-20T04:25:16.083Z,100.00
2022-10-20T04:27:45.250Z,100.00
2022-10-20T04:30:14.961Z,100.00
2022-10-20T04:32:44.252Z,100.00
2022-10-20T04:35:12.972Z,100.00
2022-10-20T04:37:42.149Z,100.00
2022-10-20T04:40:11.375Z,100.00
2022-10-20T04:42:40.303Z,100.00
2022-10-20T04:45:09.708Z,100.00
2022-10-20T04:47:38.960Z,100.00
2022-10-20T04:50:08.597Z,100.00
2022-10-20T04:52:37.954Z,100.00
2022-10-20T04:55:07.006Z,100.00
2022-10-20T04:57:36.329Z,100.00
2022-10-20T05:00:05.874Z,100.00
2022-10-20T05:02:34.745Z,100.00
2022-10-20T05:05:04.077Z,100.00
2022-10-20T05:07:33.741Z,100.00
2022-10-20T05:10:03.790Z,100.00
2022-10-20T05:12:32.981Z,100.00
2022-10-20T05:15:02.245Z,100.00
2022-10-20T05:17:32.048Z,96.26
2022-10-20T05:20:01.684Z,100.00
2022-10-20T05:22:32.574Z,100.00
2022-10-20T05:25:24.484Z,100.00
2022-10-20T05:27:51.091Z,100.00
2022-10-20T05:30:19.995Z,100.00
2022-10-20T05:32:49.009Z,100.00
2022-10-20T05:35:17.838Z,100.00
2022-10-20T05:37:46.802Z,100.00
2022-10-20T05:40:15.990Z,100.00
2022-10-20T05:42:45.284Z,100.00
2022-10-20T05:45:16.420Z,100.00
2022-10-20T05:47:45.626Z,100.00
2022-10-20T05:50:14.537Z,100.00
2022-10-20T05:52:44.022Z,100.00
2022-10-20T05:55:17.021Z,93.42
2022-10-20T05:58:03.640Z,90.95
2022-10-20T06:00:42.655Z,96.92
2022-10-20T06:03:16.150Z,100.00
2022-10-20T06:05:47.950Z,100.00
2022-10-20T06:08:22.368Z,100.00
2022-10-20T06:10:51.399Z,100.00
2022-10-20T06:13:22.266Z,100.00
2022-10-20T06:15:51.537Z,100.00
2022-10-20T06:18:20.422Z,100.00
2022-10-20T06:20:49.281Z,100.00
2022-10-20T06:23:18.057Z,100.00
2022-10-20T06:25:46.971Z,100.00
2022-10-20T06:28:15.611Z,100.00
2022-10-20T06:30:44.720Z,98.06
2022-10-20T06:33:19.022Z,86.78
2022-10-20T06:35:48.232Z,75.92
2022-10-20T06:38:17.059Z,70.46
2022-10-20T06:40:51.541Z,69.29
2022-10-20T06:43:24.186Z,68.05
2022-10-20T06:46:07.083Z,66.53
2022-10-20T06:48:40.382Z,63.51
2022-10-20T06:51:17.381Z,59.23
2022-10-20T06:53:47.388Z,51.56
2022-10-20T06:56:22.064Z,55.63
2022-10-20T06:58:56.177Z,50.42
2022-10-20T07:01:28.694Z,53.36
2022-10-20T07:04:00.533Z,54.23
2022-10-20T07:06:32.382Z,52.44
2022-10-20T07:09:11.436Z,52.44
2022-10-20T07:11:40.532Z,51.49
2022-10-20T07:14:09.442Z,52.41
2022-10-20T07:16:39.140Z,48.86
2022-10-20T07:19:18.026Z,50.55
2022-10-20T07:21:48.489Z,50.18
2022-10-20T07:24:20.445Z,46.81
2022-10-20T07:26:51.840Z,49.05
2022-10-20T07:29:21.486Z,50.77
2022-10-20T07:31:51.129Z,46.08
2022-10-20T07:34:27.611Z,46.30
2022-10-20T07:36:58.163Z,45.00
2022-10-20T07:39:28.349Z,47.40
2022-10-20T07:41:57.186Z,45.69
2022-10-20T07:44:30.578Z,45.85
2022-10-20T07:46:59.562Z,45.58
2022-10-20T07:49:44.584Z,46.28
2022-10-20T07:52:14.745Z,44.35
2022-10-20T07:54:44.176Z,43.87
2022-10-20T07:57:13.330Z,45.74
2022-10-20T07:59:42.179Z,46.04
2022-10-20T08:02:12.965Z,45.28
2022-10-20T08:04:43.292Z,43.85
2022-10-20T08:07:14.711Z,44.06
2022-10-20T08:12:17.893Z,45.54
2022-10-20T08:14:46.724Z,43.20
2022-10-20T08:17:15.742Z,45.07
2022-10-20T08:19:51.694Z,43.21
2022-10-20T08:22:20.996Z,42.06
2022-10-20T08:24:49.943Z,45.36
2022-10-20T08:27:18.878Z,43.70
2022-10-20T08:30:00.336Z,44.05
2022-10-20T08:32:40.609Z,41.57
2022-10-20T08:35:11.867Z,42.02
2022-10-20T08:37:41.766Z,42.33
2022-10-20T08:40:19.000Z,43.05
2022-10-20T08:42:50.384Z,42.83
2022-10-20T08:45:23.348Z,45.01
2022-10-20T08:47:56.380Z,41.38
2022-10-20T08:50:32.041Z,42.72
2022-10-20T08:53:02.126Z,45.37
2022-10-20T08:55:34.181Z,42.25
2022-10-20T08:58:14.120Z,43.21
2022-10-20T09:00:44.742Z,43.75
2022-10-20T09:03:19.941Z,46.09
2022-10-20T09:05:55.084Z,44.86
2022-10-20T09:08:32.026Z,44.06
2022-10-20T09:11:10.513Z,43.00
2022-10-20T09:13:39.583Z,44.84
2022-10-20T09:16:22.244Z,43.13
2022-10-20T09:19:04.079Z,43.94
2022-10-20T09:21:35.167Z,44.10
2022-10-20T09:24:07.441Z,45.89
2022-10-20T09:27:00.582Z,44.75
2022-10-20T09:29:41.238Z,45.70
2022-10-20T09:32:46.154Z,43.76
2022-10-20T09:35:24.269Z,45.78
2022-10-20T09:38:19.065Z,44.14
2022-10-20T09:41:18.078Z,44.92
2022-10-20T09:43:58.348Z,45.00
2022-10-20T09:46:38.151Z,42.87
2022-10-20T09:49:09.179Z,42.93
2022-10-20T09:51:38.309Z,42.85
2022-10-20T09:54:16.359Z,43.66
2022-10-20T09:56:47.823Z,45.31
2022-10-20T09:59:32.179Z,42.94
2022-10-20T10:02:25.144Z,42.02
2022-10-20T10:04:55.434Z,41.44
2022-10-20T10:07:33.097Z,43.69
2022-10-20T10:10:24.739Z,41.01
2022-10-20T10:13:02.356Z,42.92
2022-10-20T10:15:35.779Z,41.61
2022-10-20T10:18:17.287Z,41.35
2022-10-20T10:20:46.502Z,40.54
2022-10-20T10:23:30.546Z,41.07
2022-10-20T10:26:08.079Z,41.36
2022-10-20T10:28:39.692Z,41.83
2022-10-20T10:31:17.990Z,43.50
2022-10-20T10:33:47.726Z,38.98
2022-10-20T10:36:35.703Z,40.52
2022-10-20T10:39:08.498Z,41.79
2022-10-20T10:41:48.350Z,41.40
2022-10-20T10:44:42.900Z,41.62
2022-10-20T10:47:51.069Z,41.87
2022-10-20T10:50:40.826Z,41.93
2022-10-20T10:53:36.694Z,41.62
2022-10-20T10:56:28.496Z,43.64
2022-10-20T10:59:12.956Z,43.14
2022-10-20T11:02:00.574Z,44.46
2022-10-20T11:04:47.721Z,44.31
2022-10-20T11:07:35.587Z,43.96
2022-10-20T11:13:33.017Z,45.46
2022-10-20T11:16:08.578Z,48.42
2022-10-20T11:19:22.639Z,47.40
2022-10-20T11:21:59.702Z,49.17
2022-10-20T11:24:58.419Z,52.50
2022-10-20T11:27:42.740Z,55.00
2022-10-20T11:30:35.291Z,51.84
2022-10-20T11:33:31.135Z,56.07
2022-10-20T11:36:20.420Z,59.56
2022-10-20T11:38:55.857Z,62.02
2022-10-20T11:41:44.533Z,57.08
2022-10-20T11:44:38.522Z,55.34
2022-10-20T11:47:35.862Z,50.11
2022-10-20T11:50:14.591Z,52.33
2022-10-20T11:52:56.485Z,56.64
2022-10-20T11:55:39.371Z,54.30
2022-10-20T11:58:10.833Z,56.18
2022-10-20T12:01:40.138Z,60.31
2022-10-20T12:07:47.165Z,55.24
2022-10-20T12:10:37.621Z,52.79
2022-10-20T12:16:10.791Z,64.68
2022-10-20T12:18:40.379Z,60.95
2022-10-20T12:21:13.061Z,61.71
2022-10-20T12:23:48.047Z,61.71
2022-10-20T12:26:35.113Z,60.93
2022-10-20T12:29:34.134Z,65.37
2022-10-20T12:32:27.381Z,66.00
2022-10-20T12:35:00.215Z,62.29
2022-10-20T12:37:31.146Z,61.64
2022-10-20T12:40:26.709Z,64.56
2022-10-20T12:42:57.406Z,62.18
2022-10-20T12:45:37.038Z,63.49
2022-10-20T12:48:09.948Z,67.85
2022-10-20T12:50:51.223Z,65.90
2022-10-20T12:53:31.141Z,73.05
2022-10-20T12:56:20.569Z,80.78
2022-10-20T12:59:10.739Z,74.34
2022-10-20T13:02:14.108Z,80.76
2022-10-20T13:05:07.271Z,79.63
2022-10-20T13:07:49.644Z,97.54
2022-10-20T13:10:39.463Z,91.18
2022-10-20T13:13:08.489Z,89.29
2022-10-20T13:15:37.237Z,93.45
2022-10-20T13:18:12.563Z,91.79
2022-10-20T13:20:44.628Z,92.25
2022-10-20T13:23:48.841Z,94.74
2022-10-20T13:26:38.429Z,100.00
2022-10-20T13:29:26.014Z,100.00
2022-10-20T13:32:34.902Z,100.00
2022-10-20T13:36:02.842Z,100.00
2022-10-20T13:38:57.783Z,100.00
2022-10-20T13:41:45.736Z,100.00
2022-10-20T13:44:48.845Z,100.00
2022-10-20T13:47:28.510Z,100.00
2022-10-20T13:50:08.093Z,100.00
2022-10-20T13:52:45.153Z,100.00
2022-10-20T13:55:21.843Z,100.00
2022-10-20T13:57:58.050Z,100.00
2022-10-20T14:00:34.171Z,100.00
2022-10-20T14:03:24.185Z,100.00
2022-10-20T14:05:55.635Z,100.00
2022-10-20T14:08:28.571Z,100.00
2022-10-20T14:11:05.470Z,100.00
2022-10-20T14:13:37.180Z,100.00
2022-10-20T14:16:18.409Z,100.00
2022-10-20T14:19:04.103Z,100.00
2022-10-20T14:21:59.625Z,100.00
2022-10-20T14:24:37.470Z,100.00
2022-10-20T14:27:20.031Z,100.00
2022-10-20T14:29:52.338Z,100.00
2022-10-20T14:32:25.717Z,100.00
2022-10-20T14:35:25.884Z,100.00
2022-10-20T14:38:06.229Z,100.00
2022-10-20T14:40:39.068Z,100.00
2022-10-20T14:43:15.816Z,100.00
2022-10-20T14:45:54.987Z,100.00
2022-10-20T14:48:27.562Z,100.00
2022-10-20T14:50:57.158Z,100.00
2022-10-20T14:53:35.012Z,100.00
2022-10-20T14:56:05.186Z,100.00
2022-10-20T14:58:44.193Z,100.00
2022-10-20T15:01:30.619Z,100.00
2022-10-20T15:04:12.789Z,100.00
2022-10-20T15:06:44.733Z,100.00
2022-10-20T15:09:32.617Z,100.00
2022-10-20T15:12:29.011Z,100.00
2022-10-20T15:15:21.523Z,100.00
2022-10-20T15:18:16.261Z,100.00
2022-10-20T15:20:47.326Z,100.00
2022-10-20T15:23:25.088Z,100.00
2022-10-20T15:26:02.322Z,100.00
2022-10-20T15:28:38.851Z,100.00
2022-10-20T15:31:20.992Z,100.00
2022-10-20T15:33:52.029Z,100.00
2022-10-20T15:36:34.409Z,100.00
2022-10-20T15:39:04.979Z,100.00
2022-10-20T15:41:42.031Z,100.00
2022-10-20T15:44:23.099Z,100.00
2022-10-20T15:46:56.332Z,100.00
2022-10-20T15:49:25.539Z,100.00
2022-10-20T15:51:54.669Z,100.00
2022-10-20T15:54:24.385Z,100.00
2022-10-20T15:56:53.610Z,100.00
2022-10-20T15:59:22.683Z,100.00
2022-10-20T16:01:51.404Z,100.00
2022-10-20T16:04:24.289Z,100.00
2022-10-20T16:06:59.062Z,100.00
2022-10-20T16:09:31.204Z,100.00
2022-10-20T16:12:00.262Z,100.00
2022-10-20T16:14:29.260Z,100.00
2022-10-20T16:17:01.630Z,100.00
2022-10-20T16:19:31.210Z,100.00
2022-10-20T16:22:00.122Z,100.00
2022-10-20T16:24:28.995Z,100.00
2022-10-20T16:26:58.378Z,100.00
2022-10-20T16:29:27.509Z,100.00
2022-10-20T16:31:57.933Z,100.00
2022-10-20T16:34:29.389Z,100.00
2022-10-20T16:36:58.417Z,100.00
2022-10-20T16:39:30.083Z,100.00
2022-10-20T16:41:59.084Z,100.00
2022-10-20T16:44:27.884Z,100.00
2022-10-20T16:46:57.086Z,100.00
2022-10-20T16:49:26.909Z,100.00
2022-10-20T16:51:55.985Z,100.00
2022-10-20T16:54:25.057Z,100.00
2022-10-20T16:56:54.049Z,100.00
2022-10-20T16:59:23.148Z,100.00
2022-10-20T17:01:52.386Z,96.27
2022-10-20T17:04:21.557Z,98.20
2022-10-20T17:06:50.462Z,100.00
2022-10-20T17:09:19.408Z,93.17
2022-10-20T17:11:48.325Z,97.18
2022-10-20T17:14:23.467Z,84.71
2022-10-20T17:16:52.491Z,93.14
2022-10-20T17:19:24.695Z,87.55
2022-10-20T17:21:56.127Z,91.57
2022-10-20T17:24:26.108Z,93.72
2022-10-20T17:26:54.894Z,82.05
2022-10-20T17:29:26.206Z,92.98
2022-10-20T17:31:55.593Z,97.16
2022-10-20T17:34:24.690Z,94.47
2022-10-20T17:36:53.949Z,100.00
2022-10-20T17:39:25.335Z,100.00
2022-10-20T17:41:55.047Z,100.00
2022-10-20T17:44:24.098Z,100.00
2022-10-20T17:46:53.302Z,100.00
2022-10-20T17:49:22.224Z,100.00
2022-10-20T17:51:51.701Z,100.00
2022-10-20T17:54:21.462Z,100.00
2022-10-20T17:56:53.299Z,98.56
2022-10-20T17:59:22.959Z,100.00
2022-10-20T18:01:51.926Z,100.00
2022-10-20T18:04:23.757Z,100.00
2022-10-20T18:06:52.989Z,100.00
2022-10-20T18:09:21.862Z,99.82
2022-10-20T18:11:52.708Z,100.00
2022-10-20T18:14:22.120Z,100.00
2022-10-20T18:16:51.104Z,96.69
2022-10-20T18:19:21.228Z,97.55
2022-10-20T18:21:50.333Z,79.83
2022-10-20T18:24:20.328Z,89.12
2022-10-20T18:26:49.386Z,88.55
2022-10-20T18:29:18.595Z,87.73
2022-10-20T18:31:48.541Z,82.17
2022-10-20T18:34:21.631Z,82.66
2022-10-20T18:36:51.881Z,72.81
2022-10-20T18:39:21.017Z,74.36
2022-10-20T18:41:53.125Z,71.53
2022-10-20T18:44:22.345Z,72.13
2022-10-20T18:46:52.344Z,79.01
2022-10-20T18:49:22.405Z,77.28
2022-10-20T18:51:51.991Z,79.37
2022-10-20T18:54:21.237Z,84.00
2022-10-20T18:56:50.350Z,85.55
2022-10-20T18:59:19.253Z,77.45
2022-10-20T19:01:49.301Z,83.64
2022-10-20T19:04:18.338Z,80.33
2022-10-20T19:06:49.103Z,85.22
2022-10-20T19:09:21.336Z,91.18
2022-10-20T19:14:25.056Z,96.75
2022-10-20T19:16:54.309Z,100.00
2022-10-20T19:19:23.756Z,100.00
2022-10-20T19:21:52.718Z,99.20
2022-10-20T19:24:25.076Z,99.92
2022-10-20T19:29:47.893Z,77.60
2022-10-20T19:32:18.397Z,78.95
2022-10-20T19:34:47.329Z,86.18
2022-10-20T19:37:16.045Z,87.31
2022-10-20T19:39:45.231Z,88.04
2022-10-20T19:42:14.724Z,74.57
2022-10-20T19:44:43.907Z,65.42
2022-10-20T19:47:13.709Z,72.35
2022-10-20T19:49:42.607Z,72.35
2022-10-20T19:52:12.620Z,82.76
2022-10-20T19:54:42.245Z,77.41
2022-10-20T19:57:11.036Z,80.91
2022-10-20T19:59:40.145Z,78.10
2022-10-20T20:02:09.286Z,82.92
2022-10-20T20:04:38.407Z,83.90
2022-10-20T20:07:07.307Z,87.56
2022-10-20T20:09:36.516Z,91.76
2022-10-20T20:12:05.357Z,92.33
2022-10-20T20:14:34.350Z,94.60
2022-10-20T20:17:04.310Z,88.08
2022-10-20T20:19:34.196Z,74.03
2022-10-20T20:22:02.981Z,70.81
2022-10-20T20:24:32.375Z,67.41
2022-10-20T20:27:01.317Z,73.35
2022-10-20T20:29:30.496Z,79.91
2022-10-20T20:31:59.254Z,80.24
2022-10-20T20:34:29.098Z,85.51
2022-10-20T20:36:57.848Z,87.31
2022-10-20T20:39:27.013Z,92.44
2022-10-20T20:41:55.797Z,95.58
2022-10-20T20:44:24.811Z,93.56
2022-10-20T20:46:53.716Z,87.44
2022-10-20T20:49:22.821Z,89.58
2022-10-20T20:51:51.576Z,87.95
2022-10-20T20:54:20.565Z,78.02
2022-10-20T20:56:49.283Z,83.11
2022-10-20T20:59:18.256Z,78.81
2022-10-20T21:01:47.084Z,82.32
2022-10-20T21:04:16.839Z,77.87
2022-10-20T21:07:02.423Z,78.87
2022-10-20T21:09:32.108Z,73.97
2022-10-20T21:12:01.266Z,76.97
2022-10-20T21:14:30.499Z,71.79
2022-10-20T21:16:59.410Z,76.58
2022-10-20T21:19:28.428Z,83.06
2022-10-20T21:22:02.568Z,87.01
2022-10-20T21:24:31.541Z,80.23
2022-10-20T21:27:00.257Z,79.91
2022-10-20T21:29:29.202Z,69.28
2022-10-20T21:31:59.119Z,67.64
2022-10-20T21:34:27.992Z,64.83
2022-10-20T21:36:56.884Z,64.84
2022-10-20T21:39:26.009Z,61.93
2022-10-20T21:41:54.744Z,67.10
2022-10-20T21:44:23.802Z,63.85
2022-10-20T21:46:53.498Z,68.94
2022-10-20T21:49:26.995Z,72.68
2022-10-20T21:51:58.059Z,71.18
2022-10-20T21:54:30.074Z,66.35
2022-10-20T21:56:59.268Z,70.74
2022-10-20T21:59:30.694Z,63.55
2022-10-20T22:02:02.053Z,67.51
2022-10-20T22:04:31.869Z,67.80
2022-10-20T22:07:00.623Z,64.89
2022-10-20T22:09:30.052Z,62.36
2022-10-20T22:12:02.286Z,67.36
2022-10-20T22:14:32.253Z,68.90
2022-10-20T22:17:02.035Z,73.24
2022-10-20T22:19:31.269Z,74.07
2022-10-20T22:22:00.397Z,75.99
2022-10-20T22:24:31.757Z,76.78
2022-10-20T22:27:00.777Z,74.75
2022-10-20T22:29:29.785Z,77.15
2022-10-20T22:31:59.341Z,80.41
2022-10-20T22:34:28.133Z,80.62
2022-10-20T22:36:57.246Z,77.25
2022-10-20T22:39:26.011Z,65.81
2022-10-20T22:41:55.157Z,66.59
2022-10-20T22:44:23.849Z,73.91
2022-10-20T22:46:53.001Z,76.31
2022-10-20T22:49:21.699Z,67.20
2022-10-20T22:51:50.579Z,65.94
2022-10-20T22:54:20.340Z,58.42
2022-10-20T22:56:53.555Z,64.76
2022-10-20T22:59:22.821Z,66.80
2022-10-20T23:01:51.827Z,69.31
2022-10-20T23:04:20.770Z,74.88
2022-10-20T23:06:49.623Z,81.54
2022-10-20T23:09:18.750Z,83.53
2022-10-20T23:11:47.467Z,83.71
2022-10-20T23:14:16.482Z,84.32
2022-10-20T23:16:45.193Z,84.52
2022-10-20T23:19:14.421Z,95.42
2022-10-20T23:21:43.373Z,95.13
2022-10-20T23:24:12.260Z,96.41
2022-10-20T23:26:41.236Z,97.57
2022-10-20T23:29:11.310Z,100.00
2022-10-20T23:31:40.139Z,100.00
2022-10-20T23:34:10.101Z,100.00
2022-10-20T23:36:39.273Z,98.47
2022-10-20T23:39:08.161Z,99.06
2022-10-20T23:41:38.007Z,93.36
2022-10-20T23:44:07.392Z,93.53
2022-10-20T23:46:36.594Z,95.01
2022-10-20T23:49:06.373Z,86.43
2022-10-20T23:51:36.034Z,93.36
2022-10-20T23:54:05.084Z,90.96
2022-10-20T23:56:34.508Z,92.04
2022-10-20T23:59:03.532Z,77.36
